sensor_id;sensor_type;location;lat;lon;timestamp;P1;durP1;ratioP1;P2;durP2;ratioP2
18776;SDS011;9517;51.174;4.160;2024-01-25T00:00:57;59.97;;;8.60;;
18776;SDS011;9517;51.174;4.160;2024-01-25T00:03:24;62.83;;;9.27;;
18776;SDS011;9517;51.174;4.160;2024-01-25T00:05:53;67.13;;;9.23;;
18776;SDS011;9517;51.174;4.160;2024-01-25T00:08:20;65.57;;;9.33;;
18776;SDS011;9517;51.174;4.160;2024-01-25T00:10:47;49.67;;;10.03;;
18776;SDS011;9517;51.174;4.160;2024-01-25T00:13:14;48.97;;;8.33;;
18776;SDS011;9517;51.174;4.160;2024-01-25T00:15:42;67.57;;;11.90;;
18776;SDS011;9517;51.174;4.160;2024-01-25T00:18:09;68.83;;;10.07;;
18776;SDS011;9517;51.174;4.160;2024-01-25T00:20:36;49.87;;;11.20;;
18776;SDS011;9517;51.174;4.160;2024-01-25T00:23:08;63.27;;;10.73;;
18776;SDS011;9517;51.174;4.160;2024-01-25T00:25:35;65.30;;;9.83;;
18776;SDS011;9517;51.174;4.160;2024-01-25T00:28:02;60.80;;;10.53;;
18776;SDS011;9517;51.174;4.160;2024-01-25T00:30:30;60.63;;;8.30;;
18776;SDS011;9517;51.174;4.160;2024-01-25T00:32:57;62.47;;;9.30;;
18776;SDS011;9517;51.174;4.160;2024-01-25T00:35:25;55.93;;;9.53;;
18776;SDS011;9517;51.174;4.160;2024-01-25T00:37:54;52.47;;;9.00;;
18776;SDS011;9517;51.174;4.160;2024-01-25T00:40:23;64.03;;;9.70;;
18776;SDS011;9517;51.174;4.160;2024-01-25T00:42:51;52.17;;;10.13;;
18776;SDS011;9517;51.174;4.160;2024-01-25T00:45:19;47.77;;;9.67;;
18776;SDS011;9517;51.174;4.160;2024-01-25T00:47:47;60.30;;;10.13;;
18776;SDS011;9517;51.174;4.160;2024-01-25T00:50:15;69.03;;;7.90;;
18776;SDS011;9517;51.174;4.160;2024-01-25T00:52:46;51.53;;;8.53;;
18776;SDS011;9517;51.174;4.160;2024-01-25T00:55:14;52.27;;;8.70;;
18776;SDS011;9517;51.174;4.160;2024-01-25T00:57:44;56.43;;;9.67;;
18776;SDS011;9517;51.174;4.160;2024-01-25T01:00:12;58.10;;;8.57;;
18776;SDS011;9517;51.174;4.160;2024-01-25T01:02:42;59.20;;;9.73;;
18776;SDS011;9517;51.174;4.160;2024-01-25T01:05:10;61.27;;;8.37;;
18776;SDS011;9517;51.174;4.160;2024-01-25T01:07:38;47.90;;;7.37;;
18776;SDS011;9517;51.174;4.160;2024-01-25T01:10:07;62.67;;;8.10;;
18776;SDS011;9517;51.174;4.160;2024-01-25T01:12:35;59.87;;;8.03;;
18776;SDS011;9517;51.174;4.160;2024-01-25T01:15:04;53.50;;;8.33;;
18776;SDS011;9517;51.174;4.160;2024-01-25T01:17:32;62.60;;;8.40;;
18776;SDS011;9517;51.174;4.160;2024-01-25T01:20:00;46.07;;;7.67;;
18776;SDS011;9517;51.174;4.160;2024-01-25T01:22:27;49.33;;;7.00;;
18776;SDS011;9517;51.174;4.160;2024-01-25T01:24:55;52.67;;;7.50;;
18776;SDS011;9517;51.174;4.160;2024-01-25T01:27:22;45.17;;;7.57;;
18776;SDS011;9517;51.174;4.160;2024-01-25T01:29:49;50.13;;;8.57;;
18776;SDS011;9517;51.174;4.160;2024-01-25T01:32:18;63.83;;;8.63;;
18776;SDS011;9517;51.174;4.160;2024-01-25T01:34:45;63.47;;;8.63;;
18776;SDS011;9517;51.174;4.160;2024-01-25T01:37:13;64.10;;;9.93;;
18776;SDS011;9517;51.174;4.160;2024-01-25T01:39:40;64.03;;;9.80;;
18776;SDS011;9517;51.174;4.160;2024-01-25T01:42:08;55.53;;;8.67;;
18776;SDS011;9517;51.174;4.160;2024-01-25T01:44:35;53.47;;;9.07;;
18776;SDS011;9517;51.174;4.160;2024-01-25T01:47:02;60.63;;;8.63;;
18776;SDS011;9517;51.174;4.160;2024-01-25T01:49:31;68.20;;;9.67;;
18776;SDS011;9517;51.174;4.160;2024-01-25T01:51:58;64.30;;;8.83;;
18776;SDS011;9517;51.174;4.160;2024-01-25T01:54:26;56.40;;;8.03;;
18776;SDS011;9517;51.174;4.160;2024-01-25T01:56:53;61.93;;;9.03;;
18776;SDS011;9517;51.174;4.160;2024-01-25T01:59:24;58.10;;;9.23;;
18776;SDS011;9517;51.174;4.160;2024-01-25T02:01:53;69.30;;;9.50;;
18776;SDS011;9517;51.174;4.160;2024-01-25T02:04:21;69.73;;;9.83;;
18776;SDS011;9517;51.174;4.160;2024-01-25T02:06:50;72.93;;;8.87;;
18776;SDS011;9517;51.174;4.160;2024-01-25T02:09:17;65.83;;;9.47;;
18776;SDS011;9517;51.174;4.160;2024-01-25T02:11:44;60.60;;;9.77;;
18776;SDS011;9517;51.174;4.160;2024-01-25T02:14:12;69.87;;;8.70;;
18776;SDS011;9517;51.174;4.160;2024-01-25T02:16:40;65.70;;;8.77;;
18776;SDS011;9517;51.174;4.160;2024-01-25T02:19:10;67.63;;;9.07;;
18776;SDS011;9517;51.174;4.160;2024-01-25T02:21:37;63.63;;;9.43;;
18776;SDS011;9517;51.174;4.160;2024-01-25T02:24:07;66.43;;;9.33;;
18776;SDS011;9517;51.174;4.160;2024-01-25T02:26:34;65.97;;;10.20;;
18776;SDS011;9517;51.174;4.160;2024-01-25T02:29:01;74.57;;;9.53;;
18776;SDS011;9517;51.174;4.160;2024-01-25T02:31:30;66.47;;;10.23;;
18776;SDS011;9517;51.174;4.160;2024-01-25T02:33:58;56.27;;;9.30;;
18776;SDS011;9517;51.174;4.160;2024-01-25T02:39:50;60.97;;;8.90;;
18776;SDS011;9517;51.174;4.160;2024-01-25T02:42:18;60.57;;;8.37;;
18776;SDS011;9517;51.174;4.160;2024-01-25T02:44:46;60.47;;;9.53;;
18776;SDS011;9517;51.174;4.160;2024-01-25T02:47:14;62.33;;;9.00;;
18776;SDS011;9517;51.174;4.160;2024-01-25T02:49:41;66.90;;;9.43;;
18776;SDS011;9517;51.174;4.160;2024-01-25T02:52:08;69.50;;;9.63;;
18776;SDS011;9517;51.174;4.160;2024-01-25T02:54:35;75.53;;;10.60;;
18776;SDS011;9517;51.174;4.160;2024-01-25T02:57:04;63.97;;;9.27;;
18776;SDS011;9517;51.174;4.160;2024-01-25T02:59:32;73.60;;;9.47;;
18776;SDS011;9517;51.174;4.160;2024-01-25T03:02:00;56.43;;;8.00;;
18776;SDS011;9517;51.174;4.160;2024-01-25T03:04:27;67.20;;;8.93;;
18776;SDS011;9517;51.174;4.160;2024-01-25T03:06:55;58.83;;;9.63;;
18776;SDS011;9517;51.174;4.160;2024-01-25T03:09:22;71.13;;;9.50;;
18776;SDS011;9517;51.174;4.160;2024-01-25T03:11:50;69.63;;;10.23;;
18776;SDS011;9517;51.174;4.160;2024-01-25T03:14:18;77.40;;;9.93;;
18776;SDS011;9517;51.174;4.160;2024-01-25T03:16:46;58.10;;;9.57;;
18776;SDS011;9517;51.174;4.160;2024-01-25T03:19:13;66.37;;;9.40;;
18776;SDS011;9517;51.174;4.160;2024-01-25T03:21:41;63.87;;;10.13;;
18776;SDS011;9517;51.174;4.160;2024-01-25T03:24:08;73.73;;;9.77;;
18776;SDS011;9517;51.174;4.160;2024-01-25T03:26:36;67.63;;;9.90;;
18776;SDS011;9517;51.174;4.160;2024-01-25T03:29:03;62.50;;;11.77;;
18776;SDS011;9517;51.174;4.160;2024-01-25T03:31:35;68.80;;;9.87;;
18776;SDS011;9517;51.174;4.160;2024-01-25T03:34:02;61.97;;;8.83;;
18776;SDS011;9517;51.174;4.160;2024-01-25T03:36:30;66.60;;;10.03;;
18776;SDS011;9517;51.174;4.160;2024-01-25T03:38:58;66.83;;;10.47;;
18776;SDS011;9517;51.174;4.160;2024-01-25T03:41:25;71.67;;;9.90;;
18776;SDS011;9517;51.174;4.160;2024-01-25T03:43:54;64.33;;;9.33;;
18776;SDS011;9517;51.174;4.160;2024-01-25T03:46:21;61.63;;;9.27;;
18776;SDS011;9517;51.174;4.160;2024-01-25T03:48:50;66.00;;;9.50;;
18776;SDS011;9517;51.174;4.160;2024-01-25T03:51:19;64.83;;;9.30;;
18776;SDS011;9517;51.174;4.160;2024-01-25T03:53:49;72.57;;;10.07;;
18776;SDS011;9517;51.174;4.160;2024-01-25T03:56:18;58.93;;;10.87;;
18776;SDS011;9517;51.174;4.160;2024-01-25T03:58:45;76.57;;;9.70;;
18776;SDS011;9517;51.174;4.160;2024-01-25T04:01:12;76.73;;;11.80;;
18776;SDS011;9517;51.174;4.160;2024-01-25T04:03:39;57.67;;;9.80;;
18776;SDS011;9517;51.174;4.160;2024-01-25T04:06:08;75.90;;;10.67;;
18776;SDS011;9517;51.174;4.160;2024-01-25T04:08:36;61.50;;;8.23;;
18776;SDS011;9517;51.174;4.160;2024-01-25T04:11:03;63.73;;;9.83;;
18776;SDS011;9517;51.174;4.160;2024-01-25T04:13:30;64.93;;;8.93;;
18776;SDS011;9517;51.174;4.160;2024-01-25T04:15:58;68.07;;;9.67;;
18776;SDS011;9517;51.174;4.160;2024-01-25T04:18:25;55.17;;;8.60;;
18776;SDS011;9517;51.174;4.160;2024-01-25T04:20:52;65.37;;;9.93;;
18776;SDS011;9517;51.174;4.160;2024-01-25T04:23:21;69.63;;;9.83;;
18776;SDS011;9517;51.174;4.160;2024-01-25T04:25:48;62.60;;;9.83;;
18776;SDS011;9517;51.174;4.160;2024-01-25T04:28:16;78.80;;;9.70;;
18776;SDS011;9517;51.174;4.160;2024-01-25T04:30:43;69.07;;;9.33;;
18776;SDS011;9517;51.174;4.160;2024-01-25T04:33:10;67.47;;;9.40;;
18776;SDS011;9517;51.174;4.160;2024-01-25T04:35:37;68.37;;;9.53;;
18776;SDS011;9517;51.174;4.160;2024-01-25T04:38:04;62.83;;;9.87;;
18776;SDS011;9517;51.174;4.160;2024-01-25T04:40:33;72.13;;;11.27;;
18776;SDS011;9517;51.174;4.160;2024-01-25T04:43:00;64.53;;;10.97;;
18776;SDS011;9517;51.174;4.160;2024-01-25T04:45:27;54.87;;;9.37;;
18776;SDS011;9517;51.174;4.160;2024-01-25T04:47:54;58.03;;;10.13;;
18776;SDS011;9517;51.174;4.160;2024-01-25T04:50:22;61.07;;;8.97;;
18776;SDS011;9517;51.174;4.160;2024-01-25T04:52:52;50.97;;;9.30;;
18776;SDS011;9517;51.174;4.160;2024-01-25T04:55:19;56.20;;;9.53;;
18776;SDS011;9517;51.174;4.160;2024-01-25T04:57:48;70.03;;;10.17;;
18776;SDS011;9517;51.174;4.160;2024-01-25T05:00:18;67.20;;;8.27;;
18776;SDS011;9517;51.174;4.160;2024-01-25T05:02:46;55.47;;;10.07;;
18776;SDS011;9517;51.174;4.160;2024-01-25T05:05:14;58.93;;;10.97;;
18776;SDS011;9517;51.174;4.160;2024-01-25T05:07:41;62.67;;;11.60;;
18776;SDS011;9517;51.174;4.160;2024-01-25T05:10:08;72.07;;;10.73;;
18776;SDS011;9517;51.174;4.160;2024-01-25T05:12:37;63.17;;;10.37;;
18776;SDS011;9517;51.174;4.160;2024-01-25T05:15:06;71.83;;;9.63;;
18776;SDS011;9517;51.174;4.160;2024-01-25T05:17:34;76.73;;;11.20;;
18776;SDS011;9517;51.174;4.160;2024-01-25T05:20:01;82.73;;;10.17;;
18776;SDS011;9517;51.174;4.160;2024-01-25T05:22:29;61.47;;;9.57;;
18776;SDS011;9517;51.174;4.160;2024-01-25T05:24:57;67.03;;;9.33;;
18776;SDS011;9517;51.174;4.160;2024-01-25T05:27:24;76.43;;;10.23;;
18776;SDS011;9517;51.174;4.160;2024-01-25T05:29:52;58.97;;;9.27;;
18776;SDS011;9517;51.174;4.160;2024-01-25T05:39:18;73.87;;;10.80;;
18776;SDS011;9517;51.174;4.160;2024-01-25T05:41:50;68.80;;;9.93;;
18776;SDS011;9517;51.174;4.160;2024-01-25T05:47:40;83.83;;;11.23;;
18776;SDS011;9517;51.174;4.160;2024-01-25T05:50:16;59.27;;;8.93;;
18776;SDS011;9517;51.174;4.160;2024-01-25T06:12:11;74.23;;;11.70;;
18776;SDS011;9517;51.174;4.160;2024-01-25T06:17:55;77.60;;;12.60;;
18776;SDS011;9517;51.174;4.160;2024-01-25T06:20:22;84.10;;;14.13;;
18776;SDS011;9517;51.174;4.160;2024-01-25T06:22:50;71.40;;;10.73;;
18776;SDS011;9517;51.174;4.160;2024-01-25T06:25:20;82.87;;;11.03;;
18776;SDS011;9517;51.174;4.160;2024-01-25T06:30:46;78.63;;;11.73;;
18776;SDS011;9517;51.174;4.160;2024-01-25T06:33:26;73.30;;;12.20;;
18776;SDS011;9517;51.174;4.160;2024-01-25T06:36:00;79.00;;;12.17;;
18776;SDS011;9517;51.174;4.160;2024-01-25T06:38:36;82.80;;;13.43;;
18776;SDS011;9517;51.174;4.160;2024-01-25T06:41:16;80.17;;;12.90;;
18776;SDS011;9517;51.174;4.160;2024-01-25T06:56:46;90.10;;;12.00;;
18776;SDS011;9517;51.174;4.160;2024-01-25T07:02:44;87.87;;;11.50;;
18776;SDS011;9517;51.174;4.160;2024-01-25T07:05:26;81.30;;;11.33;;
18776;SDS011;9517;51.174;4.160;2024-01-25T07:07:55;67.40;;;11.50;;
18776;SDS011;9517;51.174;4.160;2024-01-25T07:10:22;84.93;;;11.23;;
18776;SDS011;9517;51.174;4.160;2024-01-25T07:12:49;73.33;;;11.87;;
18776;SDS011;9517;51.174;4.160;2024-01-25T07:15:17;77.07;;;12.83;;
18776;SDS011;9517;51.174;4.160;2024-01-25T07:17:45;70.77;;;11.20;;
18776;SDS011;9517;51.174;4.160;2024-01-25T07:20:12;71.30;;;11.27;;
18776;SDS011;9517;51.174;4.160;2024-01-25T07:22:40;76.50;;;10.70;;
18776;SDS011;9517;51.174;4.160;2024-01-25T07:25:07;77.37;;;10.80;;
18776;SDS011;9517;51.174;4.160;2024-01-25T07:27:34;90.30;;;12.77;;
18776;SDS011;9517;51.174;4.160;2024-01-25T07:30:01;76.03;;;11.20;;
18776;SDS011;9517;51.174;4.160;2024-01-25T07:32:29;68.30;;;13.53;;
18776;SDS011;9517;51.174;4.160;2024-01-25T07:52:58;80.07;;;12.57;;
18776;SDS011;9517;51.174;4.160;2024-01-25T07:55:27;73.27;;;12.03;;
18776;SDS011;9517;51.174;4.160;2024-01-25T07:57:55;96.03;;;13.70;;
18776;SDS011;9517;51.174;4.160;2024-01-25T08:00:21;81.67;;;13.23;;
18776;SDS011;9517;51.174;4.160;2024-01-25T08:03:03;86.17;;;14.03;;
18776;SDS011;9517;51.174;4.160;2024-01-25T08:05:38;76.27;;;14.27;;
18776;SDS011;9517;51.174;4.160;2024-01-25T08:08:07;83.97;;;14.30;;
18776;SDS011;9517;51.174;4.160;2024-01-25T08:10:34;67.93;;;12.57;;
18776;SDS011;9517;51.174;4.160;2024-01-25T08:13:04;86.57;;;14.83;;
18776;SDS011;9517;51.174;4.160;2024-01-25T08:15:31;69.60;;;13.67;;
18776;SDS011;9517;51.174;4.160;2024-01-25T08:17:58;83.70;;;14.97;;
18776;SDS011;9517;51.174;4.160;2024-01-25T08:20:25;87.43;;;13.97;;
18776;SDS011;9517;51.174;4.160;2024-01-25T08:22:53;81.37;;;13.00;;
18776;SDS011;9517;51.174;4.160;2024-01-25T08:25:21;63.17;;;13.17;;
18776;SDS011;9517;51.174;4.160;2024-01-25T08:27:51;88.97;;;14.47;;
18776;SDS011;9517;51.174;4.160;2024-01-25T08:30:20;77.53;;;14.37;;
18776;SDS011;9517;51.174;4.160;2024-01-25T08:36:35;85.13;;;15.63;;
18776;SDS011;9517;51.174;4.160;2024-01-25T09:03:25;80.77;;;19.27;;
18776;SDS011;9517;51.174;4.160;2024-01-25T09:05:54;78.20;;;19.47;;
18776;SDS011;9517;51.174;4.160;2024-01-25T09:10:03;81.77;;;18.10;;
18776;SDS011;9517;51.174;4.160;2024-01-25T09:12:17;80.07;;;18.37;;
18776;SDS011;9517;51.174;4.160;2024-01-25T09:15:08;63.23;;;17.60;;
18776;SDS011;9517;51.174;4.160;2024-01-25T09:24:35;82.53;;;21.33;;
18776;SDS011;9517;51.174;4.160;2024-01-25T09:27:05;84.07;;;21.43;;
18776;SDS011;9517;51.174;4.160;2024-01-25T09:29:33;84.43;;;20.33;;
18776;SDS011;9517;51.174;4.160;2024-01-25T09:32:04;74.33;;;18.10;;
18776;SDS011;9517;51.174;4.160;2024-01-25T09:34:35;68.40;;;17.30;;
18776;SDS011;9517;51.174;4.160;2024-01-25T09:37:05;65.77;;;17.40;;
18776;SDS011;9517;51.174;4.160;2024-01-25T09:39:33;56.10;;;15.37;;
18776;SDS011;9517;51.174;4.160;2024-01-25T09:42:05;64.13;;;16.43;;
18776;SDS011;9517;51.174;4.160;2024-01-25T09:44:34;56.83;;;16.53;;
18776;SDS011;9517;51.174;4.160;2024-01-25T09:47:02;58.37;;;16.83;;
18776;SDS011;9517;51.174;4.160;2024-01-25T09:49:32;61.10;;;16.73;;
18776;SDS011;9517;51.174;4.160;2024-01-25T09:52:06;69.83;;;17.60;;
18776;SDS011;9517;51.174;4.160;2024-01-25T09:54:38;55.87;;;14.80;;
18776;SDS011;9517;51.174;4.160;2024-01-25T09:57:08;58.30;;;15.47;;
18776;SDS011;9517;51.174;4.160;2024-01-25T10:13:27;66.67;;;16.57;;
18776;SDS011;9517;51.174;4.160;2024-01-25T10:15:55;58.80;;;15.77;;
18776;SDS011;9517;51.174;4.160;2024-01-25T10:18:25;62.03;;;16.40;;
18776;SDS011;9517;51.174;4.160;2024-01-25T10:20:53;58.83;;;15.23;;
18776;SDS011;9517;51.174;4.160;2024-01-25T10:23:20;47.13;;;15.43;;
18776;SDS011;9517;51.174;4.160;2024-01-25T10:25:48;51.63;;;16.23;;
18776;SDS011;9517;51.174;4.160;2024-01-25T10:28:15;44.90;;;15.13;;
18776;SDS011;9517;51.174;4.160;2024-01-25T10:30:46;54.17;;;15.43;;
18776;SDS011;9517;51.174;4.160;2024-01-25T10:33:14;42.93;;;14.37;;
18776;SDS011;9517;51.174;4.160;2024-01-25T10:35:43;38.67;;;14.23;;
18776;SDS011;9517;51.174;4.160;2024-01-25T10:38:15;44.10;;;14.03;;
18776;SDS011;9517;51.174;4.160;2024-01-25T10:40:43;36.63;;;14.40;;
18776;SDS011;9517;51.174;4.160;2024-01-25T10:43:12;49.40;;;14.53;;
18776;SDS011;9517;51.174;4.160;2024-01-25T10:45:40;40.67;;;14.73;;
18776;SDS011;9517;51.174;4.160;2024-01-25T10:48:12;46.80;;;13.93;;
18776;SDS011;9517;51.174;4.160;2024-01-25T10:50:40;40.23;;;16.60;;
18776;SDS011;9517;51.174;4.160;2024-01-25T10:53:10;45.10;;;17.03;;
18776;SDS011;9517;51.174;4.160;2024-01-25T10:55:39;42.20;;;16.37;;
18776;SDS011;9517;51.174;4.160;2024-01-25T10:58:07;51.20;;;15.53;;
18776;SDS011;9517;51.174;4.160;2024-01-25T11:00:34;43.17;;;16.03;;
18776;SDS011;9517;51.174;4.160;2024-01-25T11:03:03;41.90;;;15.40;;
18776;SDS011;9517;51.174;4.160;2024-01-25T11:05:38;43.20;;;16.03;;
18776;SDS011;9517;51.174;4.160;2024-01-25T11:08:16;45.87;;;16.33;;
18776;SDS011;9517;51.174;4.160;2024-01-25T11:10:47;48.33;;;16.47;;
18776;SDS011;9517;51.174;4.160;2024-01-25T11:13:17;54.57;;;18.90;;
18776;SDS011;9517;51.174;4.160;2024-01-25T11:15:50;51.67;;;17.80;;
18776;SDS011;9517;51.174;4.160;2024-01-25T11:18:18;44.57;;;18.40;;
18776;SDS011;9517;51.174;4.160;2024-01-25T11:20:47;59.10;;;19.67;;
18776;SDS011;9517;51.174;4.160;2024-01-25T11:23:16;52.27;;;19.10;;
18776;SDS011;9517;51.174;4.160;2024-01-25T11:25:44;56.87;;;19.90;;
18776;SDS011;9517;51.174;4.160;2024-01-25T11:28:13;54.13;;;19.87;;
18776;SDS011;9517;51.174;4.160;2024-01-25T11:30:44;57.33;;;21.37;;
18776;SDS011;9517;51.174;4.160;2024-01-25T11:33:16;60.50;;;19.73;;
18776;SDS011;9517;51.174;4.160;2024-01-25T11:35:55;59.10;;;22.40;;
18776;SDS011;9517;51.174;4.160;2024-01-25T11:38:22;55.03;;;20.30;;
18776;SDS011;9517;51.174;4.160;2024-01-25T11:40:49;63.53;;;20.53;;
18776;SDS011;9517;51.174;4.160;2024-01-25T11:43:17;60.13;;;19.87;;
18776;SDS011;9517;51.174;4.160;2024-01-25T11:45:44;60.23;;;19.63;;
18776;SDS011;9517;51.174;4.160;2024-01-25T11:48:13;64.40;;;21.57;;
18776;SDS011;9517;51.174;4.160;2024-01-25T11:50:40;53.70;;;18.73;;
18776;SDS011;9517;51.174;4.160;2024-01-25T11:53:09;60.10;;;20.07;;
18776;SDS011;9517;51.174;4.160;2024-01-25T11:55:36;56.00;;;19.13;;
18776;SDS011;9517;51.174;4.160;2024-01-25T11:58:23;54.80;;;17.73;;
18776;SDS011;9517;51.174;4.160;2024-01-25T12:00:51;57.57;;;18.03;;
18776;SDS011;9517;51.174;4.160;2024-01-25T12:03:18;54.73;;;17.67;;
18776;SDS011;9517;51.174;4.160;2024-01-25T12:05:47;60.17;;;17.97;;
18776;SDS011;9517;51.174;4.160;2024-01-25T12:08:17;49.63;;;16.90;;
18776;SDS011;9517;51.174;4.160;2024-01-25T12:10:44;49.43;;;16.47;;
18776;SDS011;9517;51.174;4.160;2024-01-25T12:13:23;50.83;;;17.17;;
18776;SDS011;9517;51.174;4.160;2024-01-25T12:15:50;48.33;;;16.00;;
18776;SDS011;9517;51.174;4.160;2024-01-25T12:18:21;52.23;;;15.90;;
18776;SDS011;9517;51.174;4.160;2024-01-25T12:20:53;48.97;;;15.00;;
18776;SDS011;9517;51.174;4.160;2024-01-25T12:23:23;50.60;;;15.43;;
18776;SDS011;9517;51.174;4.160;2024-01-25T12:26:00;55.83;;;15.03;;
18776;SDS011;9517;51.174;4.160;2024-01-25T12:28:34;51.30;;;15.27;;
18776;SDS011;9517;51.174;4.160;2024-01-25T12:31:05;55.80;;;15.77;;
18776;SDS011;9517;51.174;4.160;2024-01-25T12:33:33;48.33;;;14.53;;
18776;SDS011;9517;51.174;4.160;2024-01-25T12:36:04;58.40;;;16.73;;
18776;SDS011;9517;51.174;4.160;2024-01-25T12:38:34;44.00;;;13.20;;
18776;SDS011;9517;51.174;4.160;2024-01-25T12:41:05;49.37;;;14.67;;
18776;SDS011;9517;51.174;4.160;2024-01-25T12:43:35;41.70;;;11.40;;
18776;SDS011;9517;51.174;4.160;2024-01-25T12:46:07;38.83;;;12.00;;
18776;SDS011;9517;51.174;4.160;2024-01-25T12:48:37;47.33;;;13.23;;
18776;SDS011;9517;51.174;4.160;2024-01-25T12:51:08;39.57;;;11.43;;
18776;SDS011;9517;51.174;4.160;2024-01-25T12:53:37;45.47;;;12.70;;
18776;SDS011;9517;51.174;4.160;2024-01-25T13:06:26;43.73;;;12.83;;
18776;SDS011;9517;51.174;4.160;2024-01-25T13:08:55;35.53;;;10.67;;
18776;SDS011;9517;51.174;4.160;2024-01-25T13:11:22;35.80;;;11.40;;
18776;SDS011;9517;51.174;4.160;2024-01-25T13:13:49;38.17;;;11.50;;
18776;SDS011;9517;51.174;4.160;2024-01-25T13:16:17;31.37;;;10.30;;
18776;SDS011;9517;51.174;4.160;2024-01-25T13:18:44;30.93;;;10.63;;
18776;SDS011;9517;51.174;4.160;2024-01-25T13:21:11;34.23;;;11.13;;
18776;SDS011;9517;51.174;4.160;2024-01-25T13:23:38;29.63;;;10.30;;
18776;SDS011;9517;51.174;4.160;2024-01-25T13:26:20;40.60;;;10.30;;
18776;SDS011;9517;51.174;4.160;2024-01-25T13:29:07;25.37;;;9.47;;
18776;SDS011;9517;51.174;4.160;2024-01-25T13:32:07;31.03;;;9.97;;
18776;SDS011;9517;51.174;4.160;2024-01-25T13:34:56;23.03;;;9.17;;
18776;SDS011;9517;51.174;4.160;2024-01-25T13:37:30;24.90;;;8.93;;
18776;SDS011;9517;51.174;4.160;2024-01-25T13:40:06;24.73;;;9.07;;
18776;SDS011;9517;51.174;4.160;2024-01-25T13:42:40;24.23;;;10.30;;
18776;SDS011;9517;51.174;4.160;2024-01-25T13:45:10;26.93;;;9.60;;
18776;SDS011;9517;51.174;4.160;2024-01-25T13:47:43;25.03;;;9.87;;
18776;SDS011;9517;51.174;4.160;2024-01-25T13:53:33;21.33;;;9.20;;
18776;SDS011;9517;51.174;4.160;2024-01-25T13:56:01;23.67;;;8.87;;
18776;SDS011;9517;51.174;4.160;2024-01-25T13:58:35;22.63;;;8.60;;
18776;SDS011;9517;51.174;4.160;2024-01-25T14:01:02;21.77;;;9.00;;
18776;SDS011;9517;51.174;4.160;2024-01-25T14:03:30;19.57;;;8.47;;
18776;SDS011;9517;51.174;4.160;2024-01-25T14:05:57;19.07;;;9.00;;
18776;SDS011;9517;51.174;4.160;2024-01-25T14:08:31;18.60;;;8.73;;
18776;SDS011;9517;51.174;4.160;2024-01-25T14:10:58;19.73;;;8.77;;
18776;SDS011;9517;51.174;4.160;2024-01-25T14:13:26;17.10;;;8.17;;
18776;SDS011;9517;51.174;4.160;2024-01-25T14:15:57;18.43;;;8.83;;
18776;SDS011;9517;51.174;4.160;2024-01-25T14:18:26;18.03;;;8.00;;
18776;SDS011;9517;51.174;4.160;2024-01-25T14:20:54;16.23;;;7.17;;
18776;SDS011;9517;51.174;4.160;2024-01-25T14:23:22;19.00;;;8.50;;
18776;SDS011;9517;51.174;4.160;2024-01-25T14:25:49;21.40;;;9.40;;
18776;SDS011;9517;51.174;4.160;2024-01-25T14:28:17;18.93;;;9.17;;
18776;SDS011;9517;51.174;4.160;2024-01-25T14:30:46;18.93;;;9.83;;
18776;SDS011;9517;51.174;4.160;2024-01-25T14:33:18;20.80;;;10.10;;
18776;SDS011;9517;51.174;4.160;2024-01-25T14:35:46;19.67;;;9.83;;
18776;SDS011;9517;51.174;4.160;2024-01-25T14:38:14;23.43;;;10.67;;
18776;SDS011;9517;51.174;4.160;2024-01-25T14:40:42;22.63;;;11.10;;
18776;SDS011;9517;51.174;4.160;2024-01-25T14:43:16;25.57;;;12.00;;
18776;SDS011;9517;51.174;4.160;2024-01-25T14:45:49;23.17;;;11.53;;
18776;SDS011;9517;51.174;4.160;2024-01-25T14:48:22;23.60;;;11.93;;
18776;SDS011;9517;51.174;4.160;2024-01-25T14:50:53;22.97;;;11.83;;
18776;SDS011;9517;51.174;4.160;2024-01-25T14:53:30;28.97;;;12.57;;
18776;SDS011;9517;51.174;4.160;2024-01-25T14:56:18;29.90;;;12.53;;
18776;SDS011;9517;51.174;4.160;2024-01-25T14:59:07;22.27;;;12.47;;
18776;SDS011;9517;51.174;4.160;2024-01-25T15:05:27;30.00;;;13.77;;
18776;SDS011;9517;51.174;4.160;2024-01-25T16:06:34;38.70;;;17.17;;
18776;SDS011;9517;51.174;4.160;2024-01-25T18:26:49;45.77;;;20.97;;
18776;SDS011;9517;51.174;4.160;2024-01-25T20:14:54;33.63;;;15.67;;
18776;SDS011;9517;51.174;4.160;2024-01-25T20:50:45;28.43;;;13.70;;
18776;SDS011;9517;51.174;4.160;2024-01-25T20:53:15;27.23;;;13.73;;
18776;SDS011;9517;51.174;4.160;2024-01-25T20:55:42;24.53;;;12.07;;
18776;SDS011;9517;51.174;4.160;2024-01-25T20:58:10;26.13;;;12.47;;
18776;SDS011;9517;51.174;4.160;2024-01-25T21:00:37;26.17;;;12.63;;
18776;SDS011;9517;51.174;4.160;2024-01-25T21:03:06;26.60;;;13.03;;
18776;SDS011;9517;51.174;4.160;2024-01-25T21:05:35;25.10;;;12.70;;
18776;SDS011;9517;51.174;4.160;2024-01-25T21:08:03;32.90;;;13.50;;
18776;SDS011;9517;51.174;4.160;2024-01-25T21:10:31;22.77;;;13.33;;
18776;SDS011;9517;51.174;4.160;2024-01-25T21:12:58;23.27;;;12.33;;
18776;SDS011;9517;51.174;4.160;2024-01-25T21:15:26;25.40;;;12.90;;
18776;SDS011;9517;51.174;4.160;2024-01-25T21:17:54;22.73;;;12.20;;
18776;SDS011;9517;51.174;4.160;2024-01-25T21:20:23;25.40;;;12.97;;
18776;SDS011;9517;51.174;4.160;2024-01-25T21:22:50;20.07;;;10.60;;
18776;SDS011;9517;51.174;4.160;2024-01-25T21:25:18;22.87;;;12.20;;
18776;SDS011;9517;51.174;4.160;2024-01-25T21:27:45;21.17;;;12.00;;
18776;SDS011;9517;51.174;4.160;2024-01-25T21:30:14;21.00;;;11.97;;
18776;SDS011;9517;51.174;4.160;2024-01-25T21:32:42;23.23;;;12.23;;
18776;SDS011;9517;51.174;4.160;2024-01-25T21:35:09;22.23;;;12.57;;
18776;SDS011;9517;51.174;4.160;2024-01-25T21:37:36;25.13;;;12.10;;
18776;SDS011;9517;51.174;4.160;2024-01-25T21:40:04;19.97;;;11.70;;
18776;SDS011;9517;51.174;4.160;2024-01-25T21:42:32;19.93;;;12.70;;
18776;SDS011;9517;51.174;4.160;2024-01-25T21:45:02;24.30;;;12.00;;
18776;SDS011;9517;51.174;4.160;2024-01-25T21:47:30;31.47;;;13.77;;
18776;SDS011;9517;51.174;4.160;2024-01-25T21:49:58;24.77;;;13.37;;
18776;SDS011;9517;51.174;4.160;2024-01-25T21:52:28;22.10;;;12.47;;
18776;SDS011;9517;51.174;4.160;2024-01-25T21:54:57;20.47;;;11.90;;
18776;SDS011;9517;51.174;4.160;2024-01-25T21:57:26;21.80;;;12.83;;
18776;SDS011;9517;51.174;4.160;2024-01-25T21:59:53;22.40;;;12.33;;
18776;SDS011;9517;51.174;4.160;2024-01-25T22:02:21;21.60;;;12.00;;
18776;SDS011;9517;51.174;4.160;2024-01-25T22:04:48;22.07;;;12.70;;
18776;SDS011;9517;51.174;4.160;2024-01-25T22:07:16;22.13;;;12.80;;
18776;SDS011;9517;51.174;4.160;2024-01-25T22:09:43;20.20;;;12.03;;
18776;SDS011;9517;51.174;4.160;2024-01-25T22:12:12;22.37;;;13.20;;
18776;SDS011;9517;51.174;4.160;2024-01-25T22:14:42;23.37;;;12.90;;
18776;SDS011;9517;51.174;4.160;2024-01-25T22:17:12;21.90;;;13.37;;
18776;SDS011;9517;51.174;4.160;2024-01-25T22:19:39;20.57;;;12.17;;
18776;SDS011;9517;51.174;4.160;2024-01-25T22:22:07;21.90;;;11.60;;
18776;SDS011;9517;51.174;4.160;2024-01-25T22:24:34;19.07;;;10.90;;
18776;SDS011;9517;51.174;4.160;2024-01-25T22:27:01;20.00;;;10.63;;
18776;SDS011;9517;51.174;4.160;2024-01-25T22:29:33;17.20;;;10.07;;
18776;SDS011;9517;51.174;4.160;2024-01-25T22:32:00;20.33;;;10.50;;
18776;SDS011;9517;51.174;4.160;2024-01-25T22:34:31;21.77;;;11.10;;
18776;SDS011;9517;51.174;4.160;2024-01-25T22:37:01;23.50;;;12.80;;
18776;SDS011;9517;51.174;4.160;2024-01-25T22:39:30;18.73;;;11.10;;
18776;SDS011;9517;51.174;4.160;2024-01-25T22:42:00;20.60;;;11.73;;
18776;SDS011;9517;51.174;4.160;2024-01-25T22:44:27;21.00;;;10.97;;
18776;SDS011;9517;51.174;4.160;2024-01-25T22:46:57;20.10;;;11.37;;